الصفحة الرئيسية
METAR-TAF:

METAR-TAF

مطار :

Foz do Iguaçu, بارانا, البرازيل

دائرة عرض: 25-31S, خط طول: 054-35W, ارتفاع: 180 متر

مراقبة الطقس الحالي

تاريخ ووقت الإصدار 23 دقيقة قبل الساعة 09:00UTC
ريح 8 عقدة من الشرق/الجنوب الشرقي
درجة الحرارة 19°درجة مئوية
الرطوبة 88%
ضغط 1017 hPa
الرؤية 10 كم أو أكثر
الغيوم لا تقل 1500 م ولا وجود لمزنة ركامية السحاب الأسود

METAR: SBFI 170900Z 12008KT CAVOK 19/17 Q1017

زمن: 06:23 (09:23 UTC)

توقعات

تاريخ ووقت الإصدار 6ساعات و 23 دقيقة قبل الساعة 03:00UTC
التوقعات صالحة من17 الساعة 06 UTC إلى 18 الساعة 06 UTC
ريح 5 عقدة من الشرق/الشمال الشرقي
الرؤية 10 كم أو أكثر
الغيوم لا تقل 1500 م ولا وجود لمزنة ركامية السحاب الأسود
أصبح
من 17 الساعة 12 UTC إلى 17 الساعة 14 UTC
ريح 9 عقدة من الشمال
أصبح
من 17 الساعة 22 UTC إلى 17 الساعة 24 UTC
ريح 5 عقدة من الشرق

TAF: SBFI 170300Z 1706/1806 06005KT CAVOK TN20/1708Z TX31/1718Z BECMG 1712/1714 01009KT BECMG 1722/1724 09005KT RMK PER

أرصاد الطقس والتوقعات من أكثر من 4000 مطار (تقارير الطقس للمطار METAR والتنبؤ بالطقس بالمطارTAF).

المحطات المتاحة هي النقط الصفراء والحمراء على الخريطة.

حرك المؤشر فوق النقطة لمعرفة اسم المحطة.

ثم انقر لمعرفة أرصاد وتوقعات الطقس.

لتغيير الخارطة: اضغط على الأزرار الخضراء مع رمز الصليب الأسود للتكبير. على الزر الأخضر مع شرطة للتصغير، أو على الأسهم الخضراء للخرائط المجاورة.


METAR-TAF: